Time;durP1;ratioP1;P1;durP2;ratioP2;P2;SDS_P1;SDS_P2;PMS_P1;PMS_P2;Temp;Humidity;BMP_temperature;BMP_pressure;BME280_temperature;BME280_humidity;BME280_pressure;Samples;Min_cycle;Max_cycle;Signal;HPM_P1;HPM_P2
2021/04/22 00:01:05;;;;;;;12.85;9.53;;;;;;;9.27;75.74;101167.69;1769065;80;21696;-59
2021/04/22 00:03:38;;;;;;;13.13;9.50;;;;;;;9.20;75.75;101163.37;1765483;80;21762;-60
2021/04/22 00:06:11;;;;;;;13.60;9.70;;;;;;;9.14;75.85;101162.95;1771096;80;21934;-60
2021/04/22 00:08:45;;;;;;;;;;;;;;;9.05;76.03;101166.20;1774405;80;21148;-60
2021/04/22 00:11:18;;;;;;;10.10;8.20;;;;;;;8.95;76.00;101165.99;1773186;80;20263;-59
2021/04/22 00:13:52;;;;;;;11.43;8.98;;;;;;;8.80;76.14;101171.77;1773646;80;21199;-60
2021/04/22 00:16:24;;;;;;;12.05;8.53;;;;;;;8.71;76.29;101176.77;1782433;80;21215;-59
2021/04/22 00:18:58;;;;;;;11.90;7.65;;;;;;;8.57;76.45;101172.44;1785568;80;21323;-59
2021/04/22 00:21:31;;;;;;;12.23;7.53;;;;;;;8.48;76.75;101173.05;1778619;80;21311;-60
2021/04/22 00:24:04;;;;;;;13.93;8.13;;;;;;;8.30;77.22;101179.47;1772798;80;21323;-59
2021/04/22 00:26:38;;;;;;;9.38;7.03;;;;;;;8.30;77.22;101179.47;1775999;80;22527;-60
2021/04/22 00:29:11;;;;;;;10.68;8.00;;;;;;;8.22;77.44;101183.00;1781172;80;21231;-59
2021/04/22 00:31:44;;;;;;;13.30;7.93;;;;;;;8.17;77.76;101180.34;1781556;80;21822;-59
2021/04/22 00:34:17;;;;;;;12.88;8.98;;;;;;;8.09;77.95;101179.52;1778644;80;21794;-59
2021/04/22 00:36:50;;;;;;;12.73;9.97;;;;;;;8.03;78.19;101185.11;1770654;80;21386;-59
2021/04/22 00:39:23;;;;;;;15.50;9.83;;;;;;;7.97;78.36;101192.87;1775303;80;21881;-60
2021/04/22 00:41:58;;;;;;;12.63;9.13;;;;;;;7.90;78.51;101185.07;1778169;80;21907;-60
2021/04/22 00:44:31;;;;;;;11.97;8.23;;;;;;;7.82;78.59;101183.39;1766171;80;21807;-60
2021/04/22 00:47:04;;;;;;;12.73;9.40;;;;;;;7.75;78.74;101182.56;1752201;81;21366;-59
2021/04/22 00:49:38;;;;;;;12.88;9.35;;;;;;;7.69;78.89;101184.27;1745626;81;21266;-60
2021/04/22 00:52:12;;;;;;;12.90;9.53;;;;;;;7.64;79.06;101188.92;1731158;80;21885;-59
2021/04/22 00:54:45;;;;;;;13.35;9.85;;;;;;;7.58;79.20;101194.03;1750594;81;21166;-59
2021/04/22 00:57:18;;;;;;;13.03;8.48;;;;;;;7.56;79.37;101195.06;1738181;81;21810;-60
2021/04/22 00:59:52;;;;;;;12.00;8.50;;;;;;;7.52;79.50;101194.42;1736966;81;21699;-60
2021/04/22 01:02:25;;;;;;;17.37;9.15;;;;;;;7.51;79.79;101197.10;1747136;81;21275;-59
2021/04/22 01:04:58;;;;;;;13.98;9.25;;;;;;;7.51;80.02;101204.92;1747953;81;21287;-59
2021/04/22 01:07:32;;;;;;;15.30;9.88;;;;;;;7.47;80.10;101201.19;1743312;81;21839;-59
2021/04/22 01:10:06;;;;;;;16.00;10.30;;;;;;;7.44;80.15;101202.70;1744063;80;21703;-60
2021/04/22 01:12:39;;;;;;;16.57;11.10;;;;;;;7.41;80.21;101206.79;1698279;83;21894;-59
2021/04/22 01:15:17;;;;;;;14.87;9.55;;;;;;;7.38;80.25;101206.13;1773062;80;21215;-60
2021/04/22 01:17:49;;;;;;;14.20;9.95;;;;;;;7.34;80.28;101199.44;1781908;80;21291;-59
2021/04/22 01:20:31;;;;;;;14.45;9.10;;;;;;;7.29;80.37;101195.80;1768059;80;21172;-59
2021/04/22 01:23:04;;;;;;;12.98;9.30;;;;;;;7.26;80.47;101193.87;1784517;80;21315;-59
2021/04/22 01:25:44;;;;;;;15.05;9.30;;;;;;;7.23;80.59;101196.19;1776068;80;21175;-59
2021/04/22 01:28:18;;;;;;;17.45;10.10;;;;;;;7.20;80.69;101195.52;1765619;80;21838;-60
2021/04/22 01:30:53;;;;;;;;;;;;;;;7.17;80.77;101197.84;1771949;80;21250;-60
2021/04/22 01:33:29;;;;;;;12.10;8.73;;;;;;;7.14;80.88;101196.71;1777219;80;20227;-59
2021/04/22 01:36:02;;;;;;;15.53;9.48;;;;;;;7.11;81.10;101206.48;1769897;80;21832;-59
2021/04/22 01:38:35;;;;;;;11.38;8.45;;;;;;;7.12;81.37;101211.59;1767934;80;21830;-58
2021/04/22 01:41:08;;;;;;;11.97;8.37;;;;;;;7.13;81.55;101209.84;1781679;80;21235;-59
2021/04/22 01:43:41;;;;;;;15.40;9.03;;;;;;;7.14;81.77;101214.13;1775430;80;21818;-59
2021/04/22 01:46:14;;;;;;;14.33;9.33;;;;;;;7.18;81.94;101211.25;1772946;80;21334;-58
2021/04/22 01:48:47;;;;;;;14.07;8.90;;;;;;;7.19;81.85;101218.11;1766347;80;22033;-58
2021/04/22 01:51:20;;;;;;;16.40;11.48;;;;;;;7.16;81.61;101213.56;1780045;80;21224;-59
2021/04/22 01:53:53;;;;;;;13.22;8.60;;;;;;;7.10;81.45;101215.22;1724425;80;21802;-62
2021/04/22 01:56:27;;;;;;;12.23;7.67;;;;;;;7.06;81.46;101220.23;1778947;80;21869;-59
2021/04/22 01:59:00;;;;;;;11.78;9.05;;;;;;;7.04;81.53;101222.10;1774881;80;21287;-58
2021/04/22 02:01:33;;;;;;;14.63;9.48;;;;;;;7.00;81.65;101223.22;1731740;81;21849;-59
2021/04/22 02:04:07;;;;;;;11.43;8.30;;;;;;;6.98;81.68;101220.69;1735489;81;21283;-59
2021/04/22 02:06:40;;;;;;;12.82;9.30;;;;;;;6.98;81.72;101230.25;1772909;80;21173;-59
2021/04/22 02:09:14;;;;;;;14.03;9.30;;;;;;;6.96;81.78;101231.66;1773261;80;21283;-61
2021/04/22 02:11:47;;;;;;;12.60;8.58;;;;;;;6.95;81.69;101233.06;1777010;80;22011;-61
2021/04/22 02:14:20;;;;;;;;;;;;;;;6.89;81.60;101238.60;1775989;80;21713;-60
2021/04/22 02:23:25;;;;;;;10.23;7.22;;;;;;;6.75;82.20;101253.27;1831862;77;21105;-69
2021/04/22 02:25:57;;;;;;;14.53;9.78;;;;;;;6.73;82.42;101254.28;1834620;77;21283;-68
2021/04/22 02:28:30;;;;;;;11.77;8.77;;;;;;;6.74;82.56;101252.88;1776135;80;21275;-67
2021/04/22 02:31:03;;;;;;;15.83;9.47;;;;;;;6.74;82.54;101258.08;1767161;80;21866;-68
2021/04/22 02:33:36;;;;;;;13.27;9.10;;;;;;;6.73;82.68;101260.78;1821173;78;21753;-68
2021/04/22 02:36:09;;;;;;;9.20;6.65;;;;;;;6.73;82.81;101265.50;1755551;80;21714;-68
2021/04/22 02:38:43;;;;;;;13.98;8.83;;;;;;;6.77;82.99;101272.23;1751043;79;21844;-68
2021/04/22 02:41:17;;;;;;;14.47;9.08;;;;;;;6.83;83.01;101275.41;1748208;80;21318;-67
2021/04/22 02:43:51;;;;;;;14.90;9.83;;;;;;;6.88;83.03;101271.59;1745006;80;21305;-71
2021/04/22 02:46:25;;;;;;;14.85;10.82;;;;;;;6.94;83.00;101279.07;1745299;80;21319;-66
2021/04/22 02:48:59;;;;;;;14.95;10.08;;;;;;;7.01;82.98;101271.28;1751719;80;21811;-68
2021/04/22 02:51:32;;;;;;;17.63;10.13;;;;;;;7.09;82.94;101274.75;1755996;80;21279;-68
2021/04/22 02:54:06;;;;;;;14.60;8.50;;;;;;;7.16;82.83;101276.91;1746383;81;21247;-67
2021/04/22 02:56:39;;;;;;;13.13;8.65;;;;;;;7.24;82.70;101286.85;1745102;80;21276;-67
2021/04/22 02:59:12;;;;;;;12.60;8.07;;;;;;;7.32;82.46;101288.09;1749272;79;21259;-67
2021/04/22 03:01:45;;;;;;;10.70;7.60;;;;;;;7.44;82.34;101291.74;1749106;80;21313;-67
2021/04/22 03:04:18;;;;;;;10.30;7.60;;;;;;;7.64;82.19;101290.56;1744622;80;21247;-66
2021/04/22 03:06:52;;;;;;;15.98;10.13;;;;;;;7.90;81.73;101297.64;1751225;80;21272;-67
2021/04/22 03:09:25;;;;;;;23.65;12.65;;;;;;;8.05;81.15;101302.73;1750322;80;21347;-67
2021/04/22 03:11:59;;;;;;;17.45;9.40;;;;;;;8.21;80.82;101307.02;1758352;80;21282;-68
2021/04/22 03:14:32;;;;;;;65.23;33.53;;;;;;;8.40;80.30;101307.57;1762174;80;21390;-68
2021/04/22 03:17:05;;;;;;;58.52;26.73;;;;;;;8.54;79.72;101308.84;1757918;80;21328;-67
2021/04/22 03:19:38;;;;;;;42.00;22.50;;;;;;;8.63;79.36;101313.00;1817585;77;21346;-68
2021/04/22 03:22:11;;;;;;;26.07;16.17;;;;;;;8.71;79.07;101314.66;1810063;77;21946;-66
2021/04/22 03:24:44;;;;;;;14.93;10.37;;;;;;;8.83;78.68;101318.72;1816006;77;21853;-65
2021/04/22 03:27:17;;;;;;;13.53;9.13;;;;;;;9.06;78.29;101318.05;1816147;77;21286;-69
2021/04/22 03:29:50;;;;;;;16.23;8.33;;;;;;;9.34;77.02;101323.96;1814316;77;21283;-71
2021/04/22 03:32:23;;;;;;;11.10;7.95;;;;;;;9.34;77.02;101323.96;1812369;78;21644;-70
2021/04/22 03:34:56;;;;;;;11.40;8.53;;;;;;;9.46;76.72;101331.45;1817676;78;21195;-69
2021/04/22 03:37:29;;;;;;;12.53;9.17;;;;;;;9.59;76.02;101333.62;1808600;77;21425;-70
2021/04/22 03:40:04;;;;;;;13.70;9.33;;;;;;;9.77;75.39;101336.74;1817421;77;21331;-69
2021/04/22 03:42:37;;;;;;;14.15;7.92;;;;;;;10.06;74.71;101341.66;1781214;79;22331;-69
2021/04/22 03:45:12;;;;;;;12.83;8.27;;;;;;;10.91;72.75;101346.08;1805664;77;21251;-69
2021/04/22 03:47:44;;;;;;;11.25;7.78;;;;;;;10.91;72.75;101346.08;1824867;77;21280;-68
2021/04/22 03:50:18;;;;;;;11.50;7.60;;;;;;;11.32;71.20;101348.27;1805939;78;21335;-68
2021/04/22 03:52:52;;;;;;;10.50;7.67;;;;;;;11.73;69.84;101351.25;1808795;77;21310;-69
2021/04/22 03:55:25;;;;;;;12.43;7.95;;;;;;;12.30;68.37;101353.77;1814675;77;21199;-70
2021/04/22 03:57:58;;;;;;;11.35;7.37;;;;;;;12.95;66.52;101352.93;1812516;78;21285;-70
2021/04/22 04:00:32;;;;;;;12.13;7.95;;;;;;;13.67;64.55;101353.46;1826450;77;21252;-68
2021/04/22 04:03:06;;;;;;;15.50;8.13;;;;;;;14.42;62.28;101359.27;1825108;77;21279;-68
2021/04/22 04:05:40;;;;;;;11.55;8.43;;;;;;;15.12;59.96;101360.88;1783251;79;21853;-68
2021/04/22 04:08:13;;;;;;;17.55;8.30;;;;;;;15.75;57.89;101358.16;1772238;79;21998;-69
2021/04/22 04:10:46;;;;;;;10.30;6.95;;;;;;;16.29;54.99;101355.59;1774771;80;21275;-69
2021/04/22 04:13:19;;;;;;;10.55;7.10;;;;;;;16.69;52.84;101361.39;1784397;79;21276;-68
2021/04/22 04:15:53;;;;;;;11.22;7.70;;;;;;;17.13;51.70;101362.83;1753100;79;21301;-69
2021/04/22 04:18:26;;;;;;;12.70;7.03;;;;;;;17.61;50.29;101365.08;1740087;81;21396;-68
2021/04/22 04:20:59;;;;;;;11.50;6.22;;;;;;;18.03;48.80;101365.52;1752184;80;21887;-68
2021/04/22 04:23:32;;;;;;;15.88;8.03;;;;;;;18.39;47.33;101366.19;1779011;79;21187;-67
2021/04/22 04:26:05;;;;;;;13.18;6.20;;;;;;;18.71;46.13;101371.66;1812851;77;21252;-69
2021/04/22 04:28:38;;;;;;;9.33;5.40;;;;;;;18.98;44.88;101381.17;1740027;81;21352;-69
2021/04/22 04:31:12;;;;;;;8.70;4.92;;;;;;;19.21;44.42;101374.23;1738204;81;21270;-67
2021/04/22 04:33:45;;;;;;;10.80;6.05;;;;;;;19.52;43.27;101378.91;1775766;79;21256;-69
2021/04/22 04:36:18;;;;;;;13.22;5.83;;;;;;;19.71;42.80;101384.72;1731324;81;21212;-68
2021/04/22 04:38:51;;;;;;;8.20;5.17;;;;;;;19.93;42.12;101382.69;1727923;80;21905;-68
2021/04/22 04:41:24;;;;;;;8.50;5.60;;;;;;;20.19;41.18;101377.13;1767611;79;21811;-68
2021/04/22 04:43:57;;;;;;;15.93;5.03;;;;;;;20.41;41.09;101379.09;1810224;77;21808;-65
2021/04/22 04:46:32;;;;;;;10.75;4.97;;;;;;;20.72;39.87;101379.11;1823561;77;21891;-67
2021/04/22 04:49:07;;;;;;;8.13;4.83;;;;;;;20.85;39.55;101384.67;1825494;77;21317;-66
2021/04/22 04:51:40;;;;;;;8.45;4.75;;;;;;;21.12;39.42;101385.54;1805307;77;21166;-68
2021/04/22 04:54:13;;;;;;;10.10;5.67;;;;;;;21.47;39.33;101390.26;1817388;77;21334;-68
2021/04/22 04:56:46;;;;;;;6.45;4.42;;;;;;;21.88;38.39;101381.41;1815201;77;21223;-65
2021/04/22 04:59:19;;;;;;;;;;;;;;;22.38;37.49;101387.89;1814313;77;21365;-71
2021/04/22 05:01:52;;;;;;;11.15;4.65;;;;;;;22.70;36.38;101384.31;1815686;76;20270;-67
2021/04/22 05:04:25;;;;;;;9.60;4.50;;;;;;;23.00;36.11;101390.39;1818544;76;21370;-68
2021/04/22 05:06:58;;;;;;;5.70;4.03;;;;;;;23.38;35.47;101394.50;1824086;77;21287;-66
2021/04/22 05:09:33;;;;;;;5.17;3.67;;;;;;;23.50;35.05;101396.67;1745045;79;21295;-64
2021/04/22 05:12:06;;;;;;;;;;;;;;;23.64;34.30;101395.76;1757267;79;21181;-61
2021/04/22 05:14:39;;;;;;;4.83;3.77;;;;;;;23.88;34.02;101393.99;1778896;79;20289;-67
2021/04/22 05:17:12;;;;;;;6.35;3.83;;;;;;;24.21;33.34;101393.72;1808469;77;21803;-66
2021/04/22 05:19:46;;;;;;;5.20;3.67;;;;;;;24.62;32.48;101385.14;1801571;77;21826;-62
2021/04/22 05:22:18;;;;;;;;;;;;;;;24.99;32.05;101394.58;1820066;76;21262;-65
2021/04/22 05:24:53;;;;;;;8.23;4.42;;;;;;;25.33;31.78;101395.78;1820139;77;20267;-65
2021/04/22 05:27:26;;;;;;;5.95;3.90;;;;;;;25.65;31.04;101396.83;1791754;77;21346;-69
2021/04/22 05:29:59;;;;;;;4.37;3.33;;;;;;;25.89;30.51;101390.83;1812506;76;21208;-66
2021/04/22 05:32:32;;;;;;;6.25;3.80;;;;;;;26.20;30.09;101398.23;1753492;80;21275;-65
2021/04/22 05:35:06;;;;;;;5.83;3.72;;;;;;;26.53;29.62;101395.45;1776666;79;21749;-69
2021/04/22 05:37:41;;;;;;;4.40;3.77;;;;;;;26.91;29.24;101398.20;1774461;79;21264;-65
2021/04/22 05:40:15;;;;;;;5.83;4.20;;;;;;;27.24;28.67;101400.16;1774930;79;21295;-66
2021/04/22 05:42:48;;;;;;;6.08;4.33;;;;;;;27.57;27.98;101401.27;1772052;79;21228;-68
2021/04/22 05:45:21;;;;;;;10.95;6.78;;;;;;;27.85;27.67;101402.98;1755435;78;21145;-68
2021/04/22 05:47:54;;;;;;;28.10;9.65;;;;;;;28.16;27.02;101399.41;1772448;79;21188;-67
2021/04/22 05:50:26;;;;;;;;;;;;;;;28.38;27.01;101394.69;1760341;80;21715;-67
2021/04/22 05:53:00;;;;;;;4.90;3.57;;;;;;;28.72;26.55;101406.73;1734016;80;20209;-65
2021/04/22 05:55:34;;;;;;;6.83;4.45;;;;;;;28.88;26.29;101407.45;1749082;80;21936;-62
2021/04/22 05:58:07;;;;;;;6.95;4.47;;;;;;;29.10;25.90;101402.37;1742595;80;21312;-66
2021/04/22 06:00:40;;;;;;;10.03;4.42;;;;;;;29.25;25.39;101404.98;1763021;79;21261;-66
2021/04/22 06:03:13;;;;;;;8.85;4.28;;;;;;;28.72;25.53;101409.44;1764208;78;21334;-69
2021/04/22 06:05:46;;;;;;;;;;;;;;;27.90;26.23;101412.05;1782155;78;21293;-63
2021/04/22 06:08:18;;;;;;;5.67;3.75;;;;;;;27.57;26.67;101421.45;1764171;80;20777;-66
2021/04/22 06:10:52;;;;;;;7.78;4.00;;;;;;;27.66;27.13;101414.75;1740783;79;21241;-65
2021/04/22 06:13:24;;;;;;;;;;;;;;;27.67;26.63;101409.16;1766715;79;21357;-64
2021/04/22 06:15:58;;;;;;;22.25;6.15;;;;;;;27.57;26.76;101412.03;1753375;78;20288;-66
2021/04/22 06:18:34;;;;;;;6.10;4.17;;;;;;;27.10;27.31;101411.53;1779712;79;21229;-74
2021/04/22 06:21:09;;;;;;;10.72;4.70;;;;;;;27.07;27.54;101404.40;1774245;79;21179;-70
2021/04/22 06:23:42;;;;;;;6.15;4.03;;;;;;;27.23;27.41;101407.39;1770814;79;21204;-70
2021/04/22 06:26:17;;;;;;;7.60;4.58;;;;;;;27.43;27.10;101405.11;1757148;80;21202;-67
2021/04/22 06:28:54;;;;;;;7.78;4.17;;;;;;;27.84;26.88;101414.81;1772900;79;21367;-71
2021/04/22 06:31:26;;;;;;;7.40;4.28;;;;;;;28.38;26.70;101405.98;1769499;79;21294;-66
2021/04/22 06:34:00;;;;;;;4.95;4.05;;;;;;;28.98;25.96;101409.59;1768374;79;22476;-66
2021/04/22 06:36:33;;;;;;;10.78;5.10;;;;;;;29.38;25.33;101412.58;1807885;78;21865;-63
2021/04/22 06:39:06;;;;;;;8.70;4.85;;;;;;;29.49;25.18;101410.41;1803160;78;21256;-63
2021/04/22 06:41:39;;;;;;;7.65;5.25;;;;;;;29.77;24.84;101410.59;1807187;77;21136;-66
2021/04/22 06:44:15;;;;;;;9.50;5.47;;;;;;;29.89;24.78;101410.89;1813689;77;21321;-70
2021/04/22 06:46:48;;;;;;;8.68;5.55;;;;;;;29.94;24.23;101408.31;1821307;77;21234;-71
2021/04/22 06:49:22;;;;;;;8.30;5.10;;;;;;;30.18;24.49;101417.73;1809157;77;21318;-68
2021/04/22 06:51:55;;;;;;;5.78;4.60;;;;;;;30.44;24.20;101414.02;1825513;77;21331;-65
2021/04/22 06:54:27;;;;;;;;;;;;;;;30.66;23.54;101412.84;1816974;76;22392;-71
2021/04/22 06:56:59;;;;;;;10.43;4.72;;;;;;;30.61;23.05;101413.56;1815954;77;20280;-71
2021/04/22 06:59:32;;;;;;;;;;;;;;;30.29;23.95;101421.77;1822673;77;21764;-74
2021/04/22 07:02:06;;;;;;;7.50;5.47;;;;;;;30.14;23.91;101416.58;1802094;77;20303;-76
2021/04/22 07:04:40;;;;;;;8.05;5.50;;;;;;;30.15;24.12;101416.84;1792851;76;21175;-67
2021/04/22 07:07:13;;;;;;;7.87;5.22;;;;;;;30.43;23.81;101421.83;1813869;77;21289;-73
2021/04/22 07:09:46;;;;;;;7.03;5.50;;;;;;;30.69;23.32;101413.69;1822113;77;21287;-76
2021/04/22 07:12:20;;;;;;;7.53;4.97;;;;;;;30.83;23.20;101417.78;1812659;77;21286;-71
2021/04/22 07:14:54;;;;;;;5.85;5.25;;;;;;;30.93;23.06;101418.54;1808053;77;22195;-67
2021/04/22 07:17:28;;;;;;;5.70;4.70;;;;;;;31.07;22.70;101418.53;1811780;77;21888;-72
2021/04/22 07:20:01;;;;;;;6.72;5.00;;;;;;;31.17;22.53;101415.98;1814829;78;21299;-74
2021/04/22 07:22:34;;;;;;;5.60;4.90;;;;;;;31.45;22.18;101421.92;1821753;77;22309;-72
2021/04/22 07:25:09;;;;;;;6.05;5.00;;;;;;;31.73;22.03;101419.13;1823125;77;21269;-66
2021/04/22 07:27:42;;;;;;;6.58;4.78;;;;;;;32.09;21.79;101424.03;1736675;79;21795;-67
2021/04/22 07:30:17;;;;;;;6.37;5.20;;;;;;;32.28;21.49;101424.03;1741131;80;21296;-69
2021/04/22 07:32:50;;;;;;;10.05;5.40;;;;;;;32.07;21.32;101423.47;1764497;79;21318;-66
2021/04/22 07:35:23;;;;;;;8.65;5.35;;;;;;;31.74;21.90;101417.52;1821833;77;21318;-68
2021/04/22 07:37:55;;;;;;;;;;;;;;;31.74;22.21;101422.93;1825083;77;21341;-72
2021/04/22 07:40:30;;;;;;;7.92;5.78;;;;;;;31.88;21.48;101420.16;1816993;77;20218;-65
2021/04/22 07:43:03;;;;;;;7.62;5.25;;;;;;;31.79;21.40;101421.66;1808441;77;21909;-67
2021/04/22 07:45:39;;;;;;;6.95;5.10;;;;;;;31.55;21.87;101417.48;1812925;77;21235;-65
2021/04/22 07:48:12;;;;;;;6.62;4.87;;;;;;;31.40;22.35;101415.86;1815556;77;21289;-71
2021/04/22 07:50:45;;;;;;;9.73;4.70;;;;;;;31.24;22.72;101425.59;1806634;77;21302;-72
2021/04/22 07:53:18;;;;;;;;;;;;;;;31.05;22.31;101413.86;1816532;77;21900;-66
2021/04/22 07:55:51;;;;;;;6.10;4.60;;;;;;;31.11;22.27;101409.68;1821533;77;20315;-66
2021/04/22 07:58:24;;;;;;;5.35;4.45;;;;;;;31.14;21.68;101417.29;1816191;77;21849;-64
2021/04/22 08:00:56;;;;;;;;;;;;;;;31.18;22.04;101410.34;1741902;80;21217;-65
2021/04/22 08:03:29;;;;;;;8.45;4.92;;;;;;;31.46;21.90;101418.96;1765971;79;20670;-67
2021/04/22 08:06:02;;;;;;;5.58;4.22;;;;;;;31.70;21.94;101419.61;1814164;77;21269;-72
2021/04/22 08:08:36;;;;;;;5.95;4.35;;;;;;;32.00;21.64;101416.58;1754880;80;21252;-69
2021/04/22 08:11:09;;;;;;;7.05;4.22;;;;;;;31.85;21.60;101409.02;1753930;80;21453;-64
2021/04/22 08:13:43;;;;;;;6.08;4.30;;;;;;;31.49;21.36;101417.66;1772887;79;21959;-69
2021/04/22 08:16:17;;;;;;;7.17;4.35;;;;;;;30.35;22.04;101415.98;1753576;80;21300;-68
2021/04/22 08:18:50;;;;;;;5.15;3.60;;;;;;;29.34;23.55;101410.33;1750809;79;21364;-70
2021/04/22 08:21:23;;;;;;;;;;;;;;;29.05;23.34;101412.50;1808947;77;21935;-65
2021/04/22 08:23:56;;;;;;;4.65;4.10;;;;;;;28.37;23.93;101405.70;1816104;77;20630;-70
2021/04/22 08:26:28;;;;;;;;;;;;;;;27.56;25.39;101411.75;1811255;77;21337;-72
2021/04/22 08:29:01;;;;;;;5.85;3.58;;;;;;;26.88;26.27;101402.14;1813156;77;20319;-70
2021/04/22 08:31:34;;;;;;;5.78;4.05;;;;;;;26.00;27.01;101404.14;1817844;77;21308;-72
2021/04/22 08:34:09;;;;;;;5.80;3.90;;;;;;;25.13;27.15;101408.81;1813786;77;21394;-63
2021/04/22 08:36:43;;;;;;;7.35;3.35;;;;;;;24.44;28.39;101406.29;1818822;76;21837;-72
2021/04/22 08:39:17;;;;;;;;;;;;;;;24.08;29.05;101409.68;1814737;77;21309;-64
2021/04/22 08:41:50;;;;;;;5.87;3.63;;;;;;;23.99;29.02;101415.67;1819916;76;20197;-65
2021/04/22 08:44:24;;;;;;;5.62;3.22;;;;;;;23.91;28.85;101409.13;1815279;77;21198;-63
2021/04/22 08:46:57;;;;;;;5.30;3.40;;;;;;;23.88;29.36;101406.03;1808462;77;21898;-63
2021/04/22 08:49:32;;;;;;;4.17;2.92;;;;;;;24.04;30.37;101391.84;1811894;77;21314;-66
2021/04/22 08:52:06;;;;;;;14.25;5.17;;;;;;;23.76;30.19;101407.08;1727810;80;21377;-67
2021/04/22 08:54:39;;;;;;;7.40;3.62;;;;;;;23.11;30.39;101402.42;1756413;80;21294;-68
2021/04/22 08:57:12;;;;;;;6.47;3.80;;;;;;;22.36;31.20;101400.56;1817093;77;21281;-69
2021/04/22 08:59:45;;;;;;;6.58;3.35;;;;;;;21.89;31.63;101407.58;1786078;78;21172;-66
2021/04/22 09:02:18;;;;;;;4.87;3.37;;;;;;;21.55;31.60;101408.02;1816384;77;21308;-68
2021/04/22 09:04:51;;;;;;;10.88;5.83;;;;;;;21.23;32.30;101401.62;1822461;76;21862;-66
2021/04/22 09:07:24;;;;;;;7.40;5.00;;;;;;;21.06;33.04;101397.41;1811568;78;21144;-74
2021/04/22 09:09:59;;;;;;;5.03;3.60;;;;;;;20.94;34.00;101401.45;1819170;77;21248;-70
2021/04/22 09:12:31;;;;;;;;;;;;;;;20.89;34.14;101402.47;1812394;77;22022;-68
2021/04/22 09:15:11;;;;;;;13.62;8.80;;;;;;;21.20;34.33;101400.14;1827145;77;20710;-66
2021/04/22 09:17:44;;;;;;;6.65;3.77;;;;;;;21.32;34.61;101392.06;1817190;77;21877;-66
2021/04/22 09:20:21;;;;;;;6.22;3.33;;;;;;;21.37;34.09;101394.99;1812536;77;21361;-68
2021/04/22 09:22:55;;;;;;;5.30;3.60;;;;;;;21.33;33.97;101395.53;1781495;79;21801;-67
2021/04/22 09:25:29;;;;;;;4.20;3.02;;;;;;;21.26;34.31;101392.77;1779379;79;21300;-67
2021/04/22 09:28:07;;;;;;;;;;;;;;;21.29;34.65;101391.58;1785893;79;21294;-70
2021/04/22 09:30:45;;;;;;;5.87;4.15;;;;;;;21.56;34.76;101384.88;1769430;78;20369;-65
2021/04/22 09:33:27;;;;;;;12.07;7.37;;;;;;;22.17;34.57;101381.94;1778585;78;21517;-68
2021/04/22 09:36:15;;;;;;;8.23;5.20;;;;;;;22.55;33.59;101384.81;1785175;79;21284;-64
2021/04/22 09:38:55;;;;;;;10.15;5.55;;;;;;;22.80;31.80;101380.02;1818493;77;21302;-63
2021/04/22 09:41:29;;;;;;;3.58;3.00;;;;;;;23.13;31.93;101391.88;1812880;77;21803;-64
2021/04/22 09:44:09;;;;;;;18.57;11.00;;;;;;;22.99;30.89;101384.74;1736241;80;21203;-66
2021/04/22 09:46:44;;;;;;;18.42;10.68;;;;;;;22.75;31.34;101381.08;1746485;80;21309;-70
2021/04/22 09:49:20;;;;;;;7.20;3.62;;;;;;;22.72;31.66;101381.45;1768338;79;21312;-65
2021/04/22 09:51:54;;;;;;;4.30;2.90;;;;;;;22.73;30.93;101381.28;1781234;79;21305;-66
2021/04/22 09:54:27;;;;;;;6.27;3.13;;;;;;;22.81;31.24;101379.52;1750960;79;21326;-66
2021/04/22 09:57:01;;;;;;;7.92;4.20;;;;;;;22.78;31.85;101376.70;1815592;77;21323;-65
2021/04/22 09:59:34;;;;;;;6.70;4.17;;;;;;;22.60;31.94;101385.08;1817484;77;21261;-65
2021/04/22 10:02:08;;;;;;;7.10;3.75;;;;;;;22.32;31.37;101380.11;1798094;77;21200;-64
2021/04/22 10:04:47;;;;;;;17.87;9.60;;;;;;;22.03;31.69;101375.60;1737692;79;21696;-60
2021/04/22 10:07:33;;;;;;;22.48;9.15;;;;;;;21.87;32.34;101377.11;1739110;81;21197;-65
2021/04/22 10:10:20;;;;;;;6.00;3.77;;;;;;;21.77;32.82;101381.84;1809743;77;21320;-64
2021/04/22 10:12:55;;;;;;;7.10;3.60;;;;;;;21.78;32.50;101373.34;1802927;77;21333;-64
2021/04/22 10:15:31;;;;;;;7.28;3.60;;;;;;;21.77;32.43;101371.67;1725427;80;21229;-61
2021/04/22 10:18:08;;;;;;;4.65;2.90;;;;;;;21.61;32.16;101371.34;1757873;79;21292;-67
2021/04/22 10:20:41;;;;;;;12.60;7.15;;;;;;;21.46;31.74;101375.80;1750895;79;21216;-63
2021/04/22 10:23:15;;;;;;;15.50;7.85;;;;;;;21.27;32.02;101367.80;1741300;81;21818;-64
2021/04/22 10:25:48;;;;;;;15.50;7.87;;;;;;;21.17;32.54;101373.86;1742042;81;21276;-61
2021/04/22 10:28:21;;;;;;;4.53;3.10;;;;;;;21.07;32.19;101371.09;1740743;81;21892;-63
2021/04/22 10:30:58;;;;;;;6.10;3.73;;;;;;;21.01;32.75;101370.45;1744254;80;21351;-64
2021/04/22 10:33:31;;;;;;;16.12;7.12;;;;;;;20.99;32.75;101375.96;1749765;80;21331;-65
2021/04/22 10:36:04;;;;;;;4.25;3.10;;;;;;;21.00;33.53;101374.94;1756090;80;21296;-74
2021/04/22 10:38:37;;;;;;;;;;;;;;;21.05;33.42;101379.77;1770352;79;21228;-68
2021/04/22 10:41:11;;;;;;;6.30;3.67;;;;;;;21.06;33.46;101382.27;1762971;79;20891;-65
2021/04/22 10:43:46;;;;;;;10.13;5.20;;;;;;;21.02;32.94;101382.73;1761137;79;21312;-69
2021/04/22 10:46:20;;;;;;;7.33;3.33;;;;;;;20.96;33.17;101382.96;1775300;79;21284;-68
2021/04/22 10:48:53;;;;;;;4.47;3.15;;;;;;;20.92;32.75;101384.30;1817115;77;21478;-65
2021/04/22 10:51:26;;;;;;;4.87;3.37;;;;;;;20.89;32.63;101379.84;1813961;77;21762;-64
2021/04/22 10:54:02;;;;;;;5.83;2.55;;;;;;;20.86;32.04;101375.70;1822541;77;21292;-61
2021/04/22 10:56:35;;;;;;;5.05;2.62;;;;;;;20.81;32.33;101380.72;1827640;77;21142;-60
2021/04/22 10:59:20;;;;;;;9.83;4.83;;;;;;;20.79;32.08;101382.23;1782108;79;21327;-60
2021/04/22 11:01:53;;;;;;;6.05;3.72;;;;;;;20.82;31.83;101375.20;1782104;78;21275;-58
2021/04/22 11:04:29;;;;;;;6.92;2.90;;;;;;;20.86;31.57;101374.86;1782855;79;21363;-58
2021/04/22 11:07:02;;;;;;;7.83;3.87;;;;;;;20.88;31.05;101369.69;1816622;77;22462;-63
2021/04/22 11:09:36;;;;;;;5.28;2.95;;;;;;;20.97;31.60;101370.48;1817950;77;22255;-62
2021/04/22 11:12:11;;;;;;;6.80;2.33;;;;;;;21.04;30.99;101364.78;1819670;76;21189;-62
2021/04/22 11:14:51;;;;;;;5.83;2.40;;;;;;;20.96;29.66;101357.67;1819882;77;21734;-62
2021/04/22 11:17:35;;;;;;;4.10;2.60;;;;;;;20.77;29.64;101354.97;1826847;76;21742;-61
2021/04/22 11:20:18;;;;;;;9.23;5.05;;;;;;;20.68;30.20;101357.85;1830833;77;22077;-63
2021/04/22 11:22:51;;;;;;;7.25;3.27;;;;;;;20.75;30.62;101353.48;1820675;77;21308;-68
2021/04/22 11:25:25;;;;;;;3.67;2.57;;;;;;;20.88;31.33;101349.73;1814333;77;21876;-62
2021/04/22 11:27:58;;;;;;;4.33;3.00;;;;;;;21.05;31.06;101347.81;1828559;76;22169;-62
2021/04/22 11:30:32;;;;;;;4.75;2.70;;;;;;;21.15;30.24;101345.25;1810678;77;21300;-68
2021/04/22 11:33:05;;;;;;;3.90;2.27;;;;;;;21.16;29.68;101338.90;1813058;77;21311;-66
2021/04/22 11:35:38;;;;;;;7.10;2.65;;;;;;;21.06;30.20;101341.50;1820202;76;21285;-63
2021/04/22 11:38:11;;;;;;;4.40;3.03;;;;;;;20.97;30.58;101337.21;1824159;77;21845;-62
2021/04/22 11:40:47;;;;;;;3.65;2.55;;;;;;;20.93;30.53;101332.73;1834492;77;21743;-67
2021/04/22 11:43:25;;;;;;;4.55;2.00;;;;;;;20.88;30.11;101332.42;1828604;76;21381;-62
2021/04/22 11:45:59;;;;;;;4.15;2.02;;;;;;;20.84;30.51;101333.80;1812735;77;21305;-62
2021/04/22 11:48:41;;;;;;;3.67;2.27;;;;;;;20.78;29.77;101330.48;1822768;77;21318;-66
2021/04/22 11:51:16;;;;;;;2.97;2.30;;;;;;;20.77;29.91;101327.52;1825795;76;21340;-60
2021/04/22 11:53:51;;;;;;;3.22;2.40;;;;;;;20.72;29.13;101331.20;1816281;77;21291;-65
2021/04/22 11:56:24;;;;;;;5.45;2.42;;;;;;;20.59;28.73;101325.61;1821332;77;21833;-61
2021/04/22 11:58:57;;;;;;;5.23;2.57;;;;;;;20.44;29.41;101327.38;1800088;77;21838;-65
2021/04/22 12:01:29;;;;;;;4.83;2.53;;;;;;;20.26;29.69;101315.65;1811803;77;21300;-67
2021/04/22 12:04:02;;;;;;;6.50;2.43;;;;;;;20.10;29.45;101313.03;1811684;77;21324;-67
2021/04/22 12:06:36;;;;;;;4.62;2.30;;;;;;;19.97;29.62;101316.23;1832248;76;21292;-70